createdAt,value
2022-09-17T00:01:24.647Z,1.10
2022-09-17T00:07:48.955Z,1.60
2022-09-17T00:14:13.391Z,1.40
2022-09-17T00:20:37.653Z,1.50
2022-09-17T00:26:54.472Z,1.20
2022-09-17T00:33:18.662Z,1.40
2022-09-17T00:39:42.929Z,1.40
2022-09-17T00:46:07.543Z,1.40
2022-09-17T00:52:40.583Z,1.30
2022-09-17T00:59:04.833Z,1.20
2022-09-17T01:05:29.509Z,1.20
2022-09-17T01:12:02.960Z,1.20
2022-09-17T01:18:39.421Z,1.40
2022-09-17T01:25:15.735Z,1.30
2022-09-17T01:31:52.460Z,1.20
2022-09-17T01:38:15.099Z,1.20
2022-09-17T01:44:39.401Z,1.40
2022-09-17T01:51:10.781Z,1.20
2022-09-17T01:57:35.193Z,1.40
2022-09-17T02:04:02.522Z,1.20
2022-09-17T02:10:26.879Z,1.40
2022-09-17T02:16:57.129Z,1.20
2022-09-17T02:23:24.616Z,1.10
2022-09-17T02:29:48.885Z,1.30
2022-09-17T02:36:13.205Z,1.00
2022-09-17T02:42:36.032Z,1.30
2022-09-17T02:49:09.756Z,2.10
2022-09-17T02:55:48.740Z,1.30
2022-09-17T03:02:16.073Z,1.10
2022-09-17T03:08:40.408Z,1.20
2022-09-17T03:15:04.657Z,1.20
2022-09-17T03:21:28.876Z,1.00
2022-09-17T03:27:53.441Z,0.90
2022-09-17T03:34:17.848Z,1.00
2022-09-17T03:40:41.805Z,0.80
2022-09-17T03:47:06.213Z,1.10
2022-09-17T03:53:31.286Z,1.10
2022-09-17T03:59:58.435Z,0.80
2022-09-17T04:06:22.661Z,1.10
2022-09-17T04:12:46.979Z,1.00
2022-09-17T04:19:11.161Z,1.00
2022-09-17T04:25:35.445Z,0.80
2022-09-17T04:31:59.710Z,1.20
2022-09-17T04:38:24.795Z,0.90
2022-09-17T04:44:49.122Z,0.90
2022-09-17T04:51:13.314Z,0.80
2022-09-17T04:57:37.573Z,0.80
2022-09-17T05:04:01.885Z,0.80
2022-09-17T05:10:26.283Z,0.80
2022-09-17T05:16:50.461Z,0.70
2022-09-17T05:23:14.809Z,1.00
2022-09-17T05:29:39.137Z,0.80
2022-09-17T05:36:03.122Z,0.80
2022-09-17T05:42:27.395Z,0.90
2022-09-17T05:48:51.646Z,0.70
2022-09-17T05:55:15.866Z,0.80
2022-09-17T06:01:40.205Z,0.70
2022-09-17T06:08:07.418Z,0.60
2022-09-17T06:14:34.672Z,1.00
2022-09-17T06:20:58.930Z,1.30
2022-09-17T06:27:23.257Z,0.90
2022-09-17T06:33:47.530Z,0.90
2022-09-17T06:40:11.823Z,0.90
2022-09-17T06:46:36.177Z,1.10
2022-09-17T06:53:00.468Z,0.80
2022-09-17T06:59:23.564Z,0.90
2022-09-17T07:05:47.856Z,1.10
2022-09-17T07:12:12.147Z,0.90
2022-09-17T07:18:36.379Z,0.90
2022-09-17T07:25:00.832Z,1.00
2022-09-17T07:31:25.152Z,0.70
2022-09-17T07:37:49.408Z,1.00
2022-09-17T07:44:13.633Z,1.00
2022-09-17T07:50:37.925Z,0.80
2022-09-17T07:57:02.250Z,0.80
2022-09-17T08:03:26.472Z,0.70
2022-09-17T08:09:50.883Z,0.70
2022-09-17T08:16:15.132Z,0.80
2022-09-17T08:22:39.150Z,0.90
2022-09-17T08:29:03.506Z,0.90
2022-09-17T08:35:27.796Z,1.10
2022-09-17T08:42:04.053Z,2.30
2022-09-17T08:48:31.385Z,1.70
2022-09-17T08:55:25.814Z,1.50
2022-09-17T09:01:56.055Z,1.30
2022-09-17T09:08:29.398Z,1.50
2022-09-17T09:14:53.701Z,1.50
2022-09-17T09:21:35.124Z,0.70
2022-09-17T09:27:59.423Z,1.10
2022-09-17T09:34:23.737Z,0.90
2022-09-17T09:40:48.682Z,1.20
2022-09-17T09:47:24.956Z,1.10
2022-09-17T09:54:06.221Z,0.80
2022-09-17T10:00:30.425Z,0.70
2022-09-17T10:06:54.662Z,0.80
2022-09-17T10:13:12.947Z,0.80
2022-09-17T10:19:42.873Z,0.70
2022-09-17T10:26:01.790Z,0.60
2022-09-17T10:32:28.966Z,0.80
2022-09-17T10:38:51.459Z,1.00
2022-09-17T10:45:18.518Z,0.80
2022-09-17T10:51:42.814Z,0.80
2022-09-17T10:58:13.057Z,1.00
2022-09-17T11:04:49.143Z,0.80
2022-09-17T11:11:16.396Z,0.80
2022-09-17T11:17:49.745Z,0.70
2022-09-17T11:24:19.399Z,1.50
2022-09-17T11:30:54.729Z,3.60
2022-09-17T11:37:19.044Z,3.40
2022-09-17T11:43:46.424Z,3.30
2022-09-17T11:50:26.365Z,4.50
2022-09-17T11:56:49.425Z,4.90
2022-09-17T12:03:29.152Z,4.10
2022-09-17T12:09:56.458Z,3.80
2022-09-17T12:16:24.051Z,3.00
2022-09-17T12:23:04.047Z,2.80
2022-09-17T12:29:37.452Z,2.70
2022-09-17T12:36:08.008Z,3.20
2022-09-17T12:42:53.618Z,2.30
2022-09-17T12:49:27.092Z,2.40
2022-09-17T12:55:55.010Z,2.10
2022-09-17T13:02:31.488Z,2.20
2022-09-17T13:09:20.553Z,2.00
2022-09-17T13:15:50.743Z,2.20
2022-09-17T13:22:33.148Z,2.10
2022-09-17T13:29:18.649Z,1.80
2022-09-17T13:35:54.913Z,1.80
2022-09-17T13:42:19.238Z,1.90
2022-09-17T13:48:55.569Z,2.00
2022-09-17T13:55:19.825Z,1.70
2022-09-17T14:01:53.267Z,1.80
2022-09-17T14:08:26.272Z,1.70
2022-09-17T14:14:53.136Z,1.60
2022-09-17T14:21:10.436Z,1.80
2022-09-17T14:27:43.611Z,1.40
2022-09-17T14:34:03.284Z,1.40
2022-09-17T14:40:30.463Z,1.50
2022-09-17T14:46:57.295Z,1.10
2022-09-17T14:53:24.424Z,1.50
2022-09-17T14:59:51.521Z,1.70
2022-09-17T15:06:14.196Z,1.60
2022-09-17T15:12:38.559Z,1.30
2022-09-17T15:19:02.913Z,1.60
2022-09-17T15:25:45.344Z,1.40
2022-09-17T15:32:09.556Z,1.30
2022-09-17T15:38:33.849Z,1.50
2022-09-17T15:45:06.981Z,1.80
2022-09-17T15:51:31.223Z,1.10
2022-09-17T15:57:55.607Z,1.10
2022-09-17T16:04:21.250Z,1.30
2022-09-17T16:10:45.520Z,1.20
2022-09-17T16:17:15.494Z,0.90
2022-09-17T16:23:40.372Z,1.30
2022-09-17T16:30:04.605Z,1.10
2022-09-17T16:36:28.909Z,1.10
2022-09-17T16:42:53.107Z,1.60
2022-09-17T16:49:09.901Z,1.60
2022-09-17T16:55:34.180Z,2.30
2022-09-17T17:01:58.545Z,2.00
2022-09-17T17:08:22.789Z,2.90
2022-09-17T17:14:47.120Z,3.20
2022-09-17T17:21:08.149Z,3.40
2022-09-17T17:27:32.334Z,3.70
2022-09-17T17:33:56.578Z,3.10
2022-09-17T17:40:20.824Z,3.50
2022-09-17T17:46:47.793Z,3.90
2022-09-17T17:53:12.046Z,3.50
2022-09-17T17:59:36.220Z,3.20
2022-09-17T18:06:00.465Z,3.60
2022-09-17T18:12:26.963Z,4.00
2022-09-17T18:18:51.538Z,3.60
2022-09-17T18:25:15.951Z,3.70
2022-09-17T18:31:46.098Z,3.70
2022-09-17T18:38:06.895Z,3.70
2022-09-17T18:44:31.237Z,3.60
2022-09-17T18:50:55.543Z,3.80
2022-09-17T18:57:19.767Z,3.40
2022-09-17T19:03:44.303Z,3.40
2022-09-17T19:10:08.799Z,3.30
2022-09-17T19:16:33.207Z,4.00
2022-09-17T19:22:57.625Z,3.50
2022-09-17T19:29:21.975Z,4.00
2022-09-17T19:35:46.574Z,4.10
2022-09-17T19:42:10.875Z,4.40
2022-09-17T19:48:35.058Z,4.10
2022-09-17T19:54:59.269Z,3.90
2022-09-17T20:01:23.678Z,4.40
2022-09-17T20:07:46.052Z,4.30
2022-09-17T20:14:10.278Z,4.60
2022-09-17T20:20:34.592Z,4.00
2022-09-17T20:26:58.786Z,4.40
2022-09-17T20:33:24.271Z,3.80
2022-09-17T20:39:48.832Z,4.30
2022-09-17T20:46:13.063Z,4.20
2022-09-17T20:52:37.363Z,5.00
2022-09-17T20:59:04.231Z,4.10
2022-09-17T21:05:28.757Z,4.30
2022-09-17T21:11:52.900Z,4.10
2022-09-17T21:18:18.131Z,3.90
2022-09-17T21:24:42.479Z,4.00
2022-09-17T21:31:06.913Z,4.00
2022-09-17T21:37:31.131Z,4.10
2022-09-17T21:43:55.472Z,3.90
2022-09-17T21:50:19.740Z,4.00
2022-09-17T21:56:44.103Z,4.60
2022-09-17T22:03:08.426Z,3.90
2022-09-17T22:09:32.869Z,3.90
2022-09-17T22:15:57.090Z,4.10
2022-09-17T22:22:21.396Z,3.70
2022-09-17T22:28:45.693Z,3.40
2022-09-17T22:35:09.954Z,3.50
2022-09-17T22:41:34.218Z,3.70
2022-09-17T22:47:58.641Z,3.30
2022-09-17T22:54:22.941Z,4.30
2022-09-17T23:00:47.486Z,3.80
2022-09-17T23:07:11.882Z,3.70
2022-09-17T23:13:36.537Z,3.90
2022-09-17T23:19:53.333Z,4.30
2022-09-17T23:26:17.658Z,3.60
2022-09-17T23:32:42.399Z,3.40
2022-09-17T23:39:06.591Z,3.70
2022-09-17T23:45:30.892Z,3.70
2022-09-17T23:51:55.089Z,3.60
2022-09-17T23:58:19.392Z,4.10
